Albert Maersk — OUOW2 — position and weather

sailwx.info

Track history (hours):
 
Tides and Currents Weather Stations Pressure Air Temp Water Temp Dewpoint Dewpoint Depression Visibility Wind Speed Wind Dir Waves Ship Positions

Albert Maersk

Last reported at 2017-Jan-18 23:33 UTC. Time now 2017-Jan-21 08:40 UTC.
Position N 37°29' W 029°57'.

MMSI: 220259928.

Date/timePositionNaut miles runAvg speedWind from/ knotsBaromVisibWave heightAir tempDewpointWater temp
2017-Jan-18 23:33N 37°29' W 029°57'1818.2
2017-Jan-18 22:33N 37°28' W 029°35'1818.2
2017-Jan-18 21:34N 37°27' W 029°12'1918.6
2017-Jan-18 20:34N 37°25' W 028°49'1919.1
2017-Jan-18 19:34N 37°24' W 028°25'2019.4
2017-Jan-18 18:33N 37°22' W 028°00'2120.1
2017-Jan-18 17:31N 37°19' W 027°34'2220.7
2017-Jan-18 16:26N 37°17' W 027°06'1820.7
2017-Jan-18 15:33N 37°15' W 026°44'2020.4
2017-Jan-18 14:34N 37°13' W 026°18'2120.6
2017-Jan-18 13:34N 37°11' W 025°52'2120.7
2017-Jan-18 12:34N 37°10' W 025°26'2121.2
2017-Jan-18 11:34N 37°08' W 024°60'2121.0
2017-Jan-18 10:33N 37°06' W 024°34'2121.0
2017-Jan-18 09:33N 37°04' W 024°08'2120.9
2017-Jan-18 08:34N 37°03' W 023°41'2121.1
2017-Jan-18 07:34N 37°01' W 023°15'  
2017-Jan-14 15:21N 36°40' E 013°44'1720.6
2017-Jan-14 14:33N 36°35' E 014°04'2020.6
2017-Jan-14 13:34N 36°31' E 014°29'2120.3
2017-Jan-14 12:33N 36°25' E 014°53'  
Track history (hours):
 
Tides and Currents Weather Stations Pressure Air Temp Water Temp Dewpoint Dewpoint Depression Visibility Wind Speed Wind Dir Waves Ship Positions

Albert Maersk

Last reported at 2017-Jan-18 23:33 UTC. Time now 2017-Jan-21 08:40 UTC.
Position N 37°29' W 029°57'.

MMSI: 220259928.

Date/timePositionNaut miles runAvg speedWind from/ knotsBaromVisibWave heightAir tempDewpointWater temp
2017-Jan-18 23:33N 37°29' W 029°57'1818.2
2017-Jan-18 22:33N 37°28' W 029°35'1818.2
2017-Jan-18 21:34N 37°27' W 029°12'1918.6
2017-Jan-18 20:34N 37°25' W 028°49'1919.1
2017-Jan-18 19:34N 37°24' W 028°25'2019.4
2017-Jan-18 18:33N 37°22' W 028°00'2120.1
2017-Jan-18 17:31N 37°19' W 027°34'2220.7
2017-Jan-18 16:26N 37°17' W 027°06'1820.7
2017-Jan-18 15:33N 37°15' W 026°44'2020.4
2017-Jan-18 14:34N 37°13' W 026°18'2120.6
2017-Jan-18 13:34N 37°11' W 025°52'2120.7
2017-Jan-18 12:34N 37°10' W 025°26'2121.2
2017-Jan-18 11:34N 37°08' W 024°60'2121.0
2017-Jan-18 10:33N 37°06' W 024°34'2121.0
2017-Jan-18 09:33N 37°04' W 024°08'2120.9
2017-Jan-18 08:34N 37°03' W 023°41'2121.1
2017-Jan-18 07:34N 37°01' W 023°15'  
2017-Jan-14 15:21N 36°40' E 013°44'1720.6
2017-Jan-14 14:33N 36°35' E 014°04'2020.6
2017-Jan-14 13:34N 36°31' E 014°29'2120.3
2017-Jan-14 12:33N 36°25' E 014°53'  

Dump ship's entire track history